createdAt,value
2023-02-21T00:00:04.811Z,11.57
2023-02-21T00:01:21.911Z,11.00
2023-02-21T00:02:38.921Z,13.85
2023-02-21T00:03:55.954Z,16.85
2023-02-21T00:05:13.275Z,13.00
2023-02-21T00:06:30.314Z,13.15
2023-02-21T00:07:49.226Z,10.73
2023-02-21T00:09:06.323Z,12.35
2023-02-21T00:10:25.200Z,15.18
2023-02-21T00:11:42.374Z,18.27
2023-02-21T00:12:59.459Z,9.35
2023-02-21T00:14:16.593Z,10.05
2023-02-21T00:15:36.195Z,15.38
2023-02-21T00:16:53.334Z,11.18
2023-02-21T00:18:10.480Z,9.73
2023-02-21T00:19:27.538Z,13.80
2023-02-21T00:20:44.598Z,12.55
2023-02-21T00:22:01.683Z,10.43
2023-02-21T00:23:18.788Z,11.85
2023-02-21T00:24:35.821Z,17.20
2023-02-21T00:25:52.919Z,11.50
2023-02-21T00:27:10.010Z,16.52
2023-02-21T00:28:27.072Z,19.25
2023-02-21T00:29:44.119Z,10.40
2023-02-21T00:31:03.856Z,24.30
2023-02-21T00:32:21.327Z,23.10
2023-02-21T00:33:38.425Z,16.08
2023-02-21T00:34:55.599Z,13.45
2023-02-21T00:36:12.722Z,12.13
2023-02-21T00:37:29.875Z,13.27
2023-02-21T00:38:46.971Z,11.10
2023-02-21T00:40:03.979Z,15.43
2023-02-21T00:41:21.347Z,11.48
2023-02-21T00:42:39.031Z,12.65
2023-02-21T00:43:56.272Z,12.68
2023-02-21T00:45:13.346Z,10.50
2023-02-21T00:46:33.397Z,9.75
2023-02-21T00:47:50.576Z,9.32
2023-02-21T00:49:07.640Z,12.73
2023-02-21T00:50:24.786Z,10.57
2023-02-21T00:51:41.865Z,11.82
2023-02-21T00:52:59.302Z,12.48
2023-02-21T00:54:16.423Z,9.05
2023-02-21T00:55:33.509Z,14.57
2023-02-21T00:56:50.863Z,11.48
2023-02-21T00:58:07.954Z,10.88
2023-02-21T00:59:24.987Z,9.57
2023-02-21T01:00:42.357Z,11.77
2023-02-21T01:02:02.095Z,8.43
2023-02-21T01:03:20.017Z,13.07
2023-02-21T01:04:37.537Z,9.43
2023-02-21T01:05:54.937Z,10.90
2023-02-21T01:07:12.039Z,6.90
2023-02-21T01:08:29.377Z,8.25
2023-02-21T01:09:46.466Z,9.30
2023-02-21T01:11:03.540Z,8.52
2023-02-21T01:12:21.142Z,12.75
2023-02-21T01:13:38.242Z,6.60
2023-02-21T01:14:55.362Z,8.68
2023-02-21T01:16:12.496Z,12.48
2023-02-21T01:17:32.151Z,8.35
2023-02-21T01:18:49.640Z,21.70
2023-02-21T01:20:06.716Z,15.60
2023-02-21T01:21:28.005Z,11.20
2023-02-21T01:22:45.743Z,12.77
2023-02-21T01:24:02.823Z,17.98
2023-02-21T01:25:20.467Z,16.42
2023-02-21T01:26:37.522Z,13.15
2023-02-21T01:27:54.581Z,11.80
2023-02-21T01:29:11.705Z,16.58
2023-02-21T01:30:29.049Z,15.77
2023-02-21T01:31:46.324Z,14.20
2023-02-21T01:33:05.966Z,15.48
2023-02-21T01:34:23.242Z,11.05
2023-02-21T01:35:40.417Z,19.52
2023-02-21T01:36:57.567Z,22.20
2023-02-21T01:38:14.650Z,12.85
2023-02-21T01:39:32.093Z,26.30
2023-02-21T01:40:49.219Z,20.73
2023-02-21T01:42:06.274Z,20.13
2023-02-21T01:43:30.002Z,19.23
2023-02-21T01:44:50.884Z,17.05
2023-02-21T01:46:10.843Z,16.65
2023-02-21T01:47:28.647Z,20.90
2023-02-21T01:48:49.323Z,25.65
2023-02-21T01:50:06.390Z,13.88
2023-02-21T01:51:25.994Z,11.32
2023-02-21T01:52:43.078Z,10.48
2023-02-21T01:54:00.823Z,9.80
2023-02-21T01:55:23.145Z,9.93
2023-02-21T01:56:47.565Z,9.07
2023-02-21T01:58:06.143Z,11.35
2023-02-21T01:59:23.311Z,10.88
2023-02-21T02:00:41.740Z,9.55
2023-02-21T02:02:05.072Z,11.10
2023-02-21T02:03:24.605Z,10.07
2023-02-21T02:04:57.514Z,13.63
2023-02-21T02:06:19.037Z,11.27
2023-02-21T02:07:36.218Z,10.43
2023-02-21T02:08:53.468Z,11.43
2023-02-21T02:10:13.598Z,10.10
2023-02-21T02:11:41.448Z,8.35
2023-02-21T02:13:13.963Z,9.90
2023-02-21T02:14:38.882Z,10.23
2023-02-21T02:15:57.391Z,13.93
2023-02-21T02:17:20.913Z,14.70
2023-02-21T02:18:50.707Z,7.03
2023-02-21T02:20:38.625Z,9.95
2023-02-21T02:22:25.606Z,12.73
2023-02-21T02:24:13.422Z,12.63
2023-02-21T02:25:44.036Z,9.88
2023-02-21T02:27:19.038Z,10.70
2023-02-21T02:28:57.996Z,11.65
2023-02-21T02:30:42.310Z,8.07
2023-02-21T02:32:12.966Z,9.57
2023-02-21T02:33:48.566Z,10.27
2023-02-21T02:35:03.466Z,10.20
2023-02-21T02:36:09.600Z,8.60
2023-02-21T02:37:24.540Z,15.13
2023-02-21T02:38:32.673Z,9.82
2023-02-21T02:39:53.851Z,7.15
2023-02-21T02:41:04.316Z,8.48
2023-02-21T02:42:21.828Z,10.95
2023-02-21T02:43:30.641Z,16.20
2023-02-21T02:44:45.350Z,12.70
2023-02-21T02:45:55.264Z,10.20
2023-02-21T02:47:10.783Z,7.82
2023-02-21T02:48:25.954Z,10.85
2023-02-21T02:49:41.173Z,10.23
2023-02-21T02:50:47.972Z,7.63
2023-02-21T02:51:53.541Z,13.73
2023-02-21T02:53:01.517Z,7.20
2023-02-21T02:54:08.443Z,8.73
2023-02-21T02:55:35.485Z,13.73
2023-02-21T02:56:43.415Z,9.52
2023-02-21T02:57:48.863Z,13.23
2023-02-21T02:59:03.018Z,9.55
2023-02-21T03:00:15.052Z,8.40
2023-02-21T03:01:47.295Z,10.40
2023-02-21T03:04:26.700Z,7.18
2023-02-21T03:05:52.784Z,9.15
2023-02-21T03:07:10.049Z,13.82
2023-02-21T03:08:29.461Z,8.55
2023-02-21T03:09:37.477Z,10.07
2023-02-21T03:10:53.948Z,8.65
2023-02-21T03:12:28.613Z,9.07
2023-02-21T03:13:39.382Z,8.80
2023-02-21T03:14:51.825Z,13.73
2023-02-21T03:15:59.426Z,8.43
2023-02-21T03:17:09.704Z,9.98
2023-02-21T03:18:17.668Z,12.65
2023-02-21T03:19:27.199Z,12.52
2023-02-21T03:20:32.815Z,15.52
2023-02-21T03:23:14.657Z,9.98
2023-02-21T03:24:22.739Z,13.90
2023-02-21T03:25:29.866Z,14.07
2023-02-21T03:26:39.371Z,9.60
2023-02-21T03:27:44.756Z,13.05
2023-02-21T03:28:53.862Z,9.00
2023-02-21T03:29:58.657Z,11.98
2023-02-21T03:31:08.037Z,11.40
2023-02-21T03:32:21.380Z,13.10
2023-02-21T03:33:26.899Z,10.18
2023-02-21T03:34:32.669Z,9.68
2023-02-21T03:35:41.572Z,9.85
2023-02-21T03:36:46.547Z,9.68
2023-02-21T03:37:55.251Z,9.82
2023-02-21T03:38:57.264Z,9.50
2023-02-21T03:40:02.609Z,9.55
2023-02-21T03:41:05.284Z,7.53
2023-02-21T03:42:12.330Z,9.57
2023-02-21T03:43:17.265Z,8.40
2023-02-21T03:44:23.509Z,11.07
2023-02-21T03:45:31.561Z,8.73
2023-02-21T03:46:39.867Z,10.25
2023-02-21T03:47:43.174Z,9.35
2023-02-21T03:48:53.824Z,13.43
2023-02-21T03:49:56.080Z,9.85
2023-02-21T03:51:00.611Z,10.35
2023-02-21T03:52:05.844Z,10.80
2023-02-21T03:53:19.198Z,8.55
2023-02-21T03:54:21.453Z,10.10
2023-02-21T03:55:29.157Z,8.55
2023-02-21T03:56:45.017Z,6.82
2023-02-21T03:57:48.085Z,12.50
2023-02-21T03:58:54.899Z,6.30
2023-02-21T03:59:58.634Z,8.35
2023-02-21T04:01:03.781Z,11.10
2023-02-21T04:02:05.909Z,9.13
2023-02-21T04:03:14.014Z,12.52
2023-02-21T04:04:16.378Z,10.40
2023-02-21T04:05:21.602Z,17.08
2023-02-21T04:06:23.823Z,7.55
2023-02-21T04:07:34.071Z,6.95
2023-02-21T04:08:37.025Z,7.43
2023-02-21T04:09:41.803Z,10.70
2023-02-21T04:10:52.470Z,7.45
2023-02-21T04:12:01.730Z,10.63
2023-02-21T04:13:03.704Z,9.00
2023-02-21T04:14:09.550Z,9.13
2023-02-21T04:15:14.815Z,7.60
2023-02-21T04:16:24.993Z,11.95
2023-02-21T04:17:27.695Z,11.05
2023-02-21T04:18:33.256Z,7.03
2023-02-21T04:19:35.320Z,6.40
2023-02-21T04:20:41.154Z,7.25
2023-02-21T04:21:43.113Z,9.65
2023-02-21T04:23:02.824Z,10.63
2023-02-21T04:24:08.035Z,6.00
2023-02-21T04:25:12.975Z,7.28
2023-02-21T04:26:18.579Z,8.27
2023-02-21T04:27:29.726Z,9.23
2023-02-21T04:28:31.805Z,19.60
2023-02-21T04:29:36.531Z,9.00
2023-02-21T04:30:46.494Z,7.22
2023-02-21T04:31:51.924Z,7.40
2023-02-21T04:32:57.644Z,6.70
2023-02-21T04:34:11.334Z,11.40
2023-02-21T04:35:14.411Z,13.15
2023-02-21T04:36:19.740Z,9.15
2023-02-21T04:37:21.817Z,10.63
2023-02-21T04:38:35.730Z,13.32
2023-02-21T04:39:37.674Z,13.07
2023-02-21T04:40:46.175Z,7.25
2023-02-21T04:41:48.131Z,15.73
2023-02-21T04:42:53.888Z,8.65
2023-02-21T04:43:55.900Z,9.25
2023-02-21T04:45:04.749Z,10.85
2023-02-21T04:46:07.574Z,10.63
2023-02-21T04:47:12.164Z,9.43
2023-02-21T04:48:40.076Z,9.15
2023-02-21T04:49:42.505Z,10.05
2023-02-21T04:50:47.062Z,9.07
2023-02-21T04:51:58.612Z,10.77
2023-02-21T04:53:03.452Z,14.63
2023-02-21T04:54:13.888Z,9.38
2023-02-21T04:55:18.967Z,8.55
2023-02-21T04:56:23.749Z,7.82
2023-02-21T04:57:34.349Z,12.50
2023-02-21T04:58:45.331Z,11.60
2023-02-21T05:00:00.850Z,17.05
2023-02-21T05:01:08.650Z,15.20
2023-02-21T05:02:13.245Z,13.27
2023-02-21T05:03:15.772Z,11.23
2023-02-21T05:04:20.363Z,18.58
2023-02-21T05:05:22.937Z,13.40
2023-02-21T05:06:40.083Z,12.57
2023-02-21T05:07:42.980Z,13.82
2023-02-21T05:08:47.575Z,10.18
2023-02-21T05:10:11.426Z,13.02
2023-02-21T05:11:20.204Z,14.32
2023-02-21T05:12:24.877Z,9.52
2023-02-21T05:13:31.362Z,14.73
2023-02-21T05:14:41.221Z,8.93
2023-02-21T05:15:53.722Z,11.13
2023-02-21T05:16:58.272Z,15.57
2023-02-21T05:18:00.413Z,14.48
2023-02-21T05:19:05.383Z,9.95
2023-02-21T05:20:11.900Z,10.32
2023-02-21T05:21:21.725Z,15.63
2023-02-21T05:22:23.864Z,13.70
2023-02-21T05:23:41.188Z,15.13
2023-02-21T05:24:43.238Z,11.20
2023-02-21T05:25:53.945Z,10.60
2023-02-21T05:26:58.339Z,10.53
2023-02-21T05:28:06.222Z,9.65
2023-02-21T05:29:18.769Z,12.25
2023-02-21T05:30:24.167Z,10.30
2023-02-21T05:31:31.179Z,12.57
2023-02-21T05:32:37.175Z,12.82
2023-02-21T05:33:41.757Z,9.48
2023-02-21T05:34:44.847Z,10.63
2023-02-21T05:35:49.557Z,13.55
2023-02-21T05:36:55.929Z,15.35
2023-02-21T05:38:02.913Z,15.02
2023-02-21T05:39:05.684Z,14.63
2023-02-21T05:40:23.042Z,14.05
2023-02-21T05:41:29.629Z,16.10
2023-02-21T05:42:34.610Z,11.38
2023-02-21T05:43:40.523Z,16.38
2023-02-21T05:44:48.895Z,11.93
2023-02-21T05:45:50.869Z,12.00
2023-02-21T05:46:55.915Z,11.80
2023-02-21T05:48:00.525Z,10.38
2023-02-21T05:49:07.075Z,13.07
2023-02-21T05:50:10.893Z,11.00
2023-02-21T05:51:15.885Z,10.27
2023-02-21T05:52:19.568Z,13.32
2023-02-21T05:53:26.499Z,8.95
2023-02-21T05:54:32.261Z,11.35
2023-02-21T05:55:36.824Z,15.57
2023-02-21T05:56:45.669Z,9.38
2023-02-21T05:57:59.087Z,9.95
2023-02-21T05:59:15.514Z,17.05
2023-02-21T06:00:31.575Z,12.05
2023-02-21T06:01:37.911Z,9.40
2023-02-21T06:02:42.098Z,12.55
2023-02-21T06:03:46.875Z,16.48
2023-02-21T06:04:52.080Z,17.10
2023-02-21T06:05:57.167Z,12.20
2023-02-21T06:07:04.917Z,10.43
2023-02-21T06:08:10.723Z,12.43
2023-02-21T06:09:16.139Z,18.08
2023-02-21T06:10:22.542Z,9.80
2023-02-21T06:11:33.372Z,14.07
2023-02-21T06:12:41.256Z,11.20
2023-02-21T06:14:03.506Z,17.58
2023-02-21T06:16:29.584Z,40.67
2023-02-21T06:17:40.189Z,57.40
2023-02-21T06:18:56.323Z,56.55
2023-02-21T06:19:58.304Z,54.67
2023-02-21T06:21:03.027Z,45.05
2023-02-21T06:22:13.800Z,39.85
2023-02-21T06:23:18.423Z,42.13
2023-02-21T06:24:24.518Z,39.40
2023-02-21T06:25:41.746Z,50.95
2023-02-21T06:26:46.445Z,47.17
2023-02-21T06:27:55.377Z,46.20
2023-02-21T06:28:59.975Z,45.03
2023-02-21T06:30:08.641Z,40.90
2023-02-21T06:31:17.173Z,40.15
2023-02-21T06:32:36.183Z,43.13
2023-02-21T06:33:40.461Z,48.55
2023-02-21T06:34:48.425Z,43.28
2023-02-21T06:35:50.709Z,36.22
2023-02-21T06:36:56.510Z,35.83
2023-02-21T06:38:01.096Z,23.38
2023-02-21T06:39:06.476Z,31.90
2023-02-21T06:40:09.645Z,18.27
2023-02-21T06:41:14.981Z,34.85
2023-02-21T06:42:30.741Z,26.13
2023-02-21T06:43:49.840Z,20.20
2023-02-21T06:44:57.373Z,26.40
2023-02-21T06:45:59.365Z,24.95
2023-02-21T06:47:05.670Z,27.30
2023-02-21T06:48:08.355Z,30.95
2023-02-21T06:49:16.078Z,24.23
2023-02-21T06:50:24.165Z,21.13
2023-02-21T06:51:30.139Z,20.60
2023-02-21T06:52:32.876Z,22.73
2023-02-21T06:53:37.426Z,19.52
2023-02-21T06:54:42.394Z,21.13
2023-02-21T06:55:44.538Z,25.65
2023-02-21T06:56:49.122Z,26.88
2023-02-21T06:57:51.087Z,26.70
2023-02-21T06:58:58.273Z,52.53
2023-02-21T07:00:03.324Z,42.30
2023-02-21T07:01:23.782Z,44.10
2023-02-21T07:02:30.293Z,24.90
2023-02-21T07:03:38.809Z,17.95
2023-02-21T07:04:51.590Z,15.77
2023-02-21T07:05:54.240Z,12.68
2023-02-21T07:07:17.119Z,12.45
2023-02-21T07:08:25.182Z,27.85
2023-02-21T07:09:32.635Z,15.88
2023-02-21T07:11:07.111Z,13.32
2023-02-21T07:12:15.441Z,12.70
2023-02-21T07:13:22.653Z,13.57
2023-02-21T07:14:39.031Z,11.73
2023-02-21T07:15:51.116Z,12.95
2023-02-21T07:16:55.786Z,18.15
2023-02-21T07:18:18.445Z,14.15
2023-02-21T07:19:26.860Z,12.30
2023-02-21T07:20:56.018Z,9.38
2023-02-21T07:22:04.141Z,12.50
2023-02-21T07:23:11.517Z,8.57
2023-02-21T07:24:30.634Z,10.95
2023-02-21T07:25:54.753Z,14.10
2023-02-21T07:27:08.111Z,7.93
2023-02-21T07:28:14.093Z,10.93
2023-02-21T07:29:27.719Z,9.10
2023-02-21T07:30:41.770Z,10.23
2023-02-21T07:33:25.138Z,23.10
2023-02-21T07:34:30.514Z,12.10
2023-02-21T07:35:38.232Z,30.08
2023-02-21T07:36:43.922Z,26.77
2023-02-21T07:37:51.843Z,23.08
2023-02-21T07:38:54.377Z,32.53
2023-02-21T07:40:02.924Z,40.95
2023-02-21T07:41:08.144Z,30.38
2023-02-21T07:42:17.666Z,31.73
2023-02-21T07:43:20.560Z,42.70
2023-02-21T07:44:25.471Z,31.25
2023-02-21T07:45:27.924Z,41.00
2023-02-21T07:46:35.624Z,29.00
2023-02-21T07:47:41.046Z,32.65
2023-02-21T07:48:51.806Z,60.90
2023-02-21T07:49:58.842Z,50.27
2023-02-21T07:51:36.525Z,30.20
2023-02-21T07:52:44.598Z,6.95
2023-02-21T07:53:49.321Z,11.48
2023-02-21T07:54:51.245Z,6.88
2023-02-21T07:55:56.224Z,8.60
2023-02-21T07:56:58.744Z,8.13
2023-02-21T07:58:09.611Z,8.60
2023-02-21T07:59:20.585Z,10.32
2023-02-21T08:00:28.315Z,18.48
2023-02-21T08:01:39.167Z,15.85
2023-02-21T08:02:50.100Z,13.13
2023-02-21T08:04:02.564Z,23.40
2023-02-21T08:05:14.626Z,4.82
2023-02-21T08:06:31.413Z,5.65
2023-02-21T08:07:36.861Z,6.38
2023-02-21T08:08:45.130Z,6.88
2023-02-21T08:09:55.520Z,4.65
2023-02-21T08:11:05.157Z,8.20
2023-02-21T08:12:19.147Z,6.85
2023-02-21T08:13:25.101Z,22.88
2023-02-21T08:14:36.591Z,11.85
2023-02-21T08:15:48.575Z,9.60
2023-02-21T08:17:02.734Z,7.43
2023-02-21T08:18:26.976Z,7.32
2023-02-21T08:19:33.051Z,4.65
2023-02-21T08:20:45.273Z,14.38
2023-02-21T08:21:49.441Z,7.93
2023-02-21T08:22:57.336Z,19.48
2023-02-21T08:24:09.373Z,51.80
2023-02-21T08:25:17.931Z,10.38
2023-02-21T08:26:59.120Z,21.23
2023-02-21T08:28:04.826Z,13.18
2023-02-21T08:29:09.518Z,15.77
2023-02-21T08:30:14.695Z,21.08
2023-02-21T08:31:19.933Z,36.28
2023-02-21T08:32:24.612Z,34.17
2023-02-21T08:33:31.428Z,28.25
2023-02-21T08:34:36.314Z,25.50
2023-02-21T08:35:40.955Z,8.05
2023-02-21T08:36:46.467Z,17.33
2023-02-21T08:37:50.154Z,11.18
2023-02-21T08:38:54.661Z,22.00
2023-02-21T08:39:56.633Z,13.55
2023-02-21T08:41:03.001Z,34.58
2023-02-21T08:42:05.101Z,20.70
2023-02-21T08:43:09.749Z,20.60
2023-02-21T08:44:13.385Z,19.70
2023-02-21T08:45:20.120Z,8.35
2023-02-21T08:46:24.745Z,49.40
2023-02-21T08:47:32.028Z,80.88
2023-02-21T08:48:41.107Z,38.00
2023-02-21T08:49:47.678Z,129.55
2023-02-21T08:50:54.470Z,20.48
2023-02-21T08:51:56.622Z,18.55
2023-02-21T08:53:01.271Z,44.85
2023-02-21T08:54:04.154Z,27.25
2023-02-21T08:55:10.014Z,53.30
2023-02-21T08:56:14.744Z,54.15
2023-02-21T08:57:16.768Z,34.92
2023-02-21T08:58:21.391Z,80.30
2023-02-21T08:59:26.009Z,102.47
2023-02-21T09:00:28.613Z,78.13
2023-02-21T09:01:35.877Z,16.77
2023-02-21T09:02:40.511Z,13.02
2023-02-21T09:03:45.216Z,17.98
2023-02-21T09:04:47.578Z,24.63
2023-02-21T09:05:52.245Z,22.42
2023-02-21T09:06:54.561Z,37.30
2023-02-21T09:08:02.213Z,66.43
2023-02-21T09:09:04.820Z,118.55
2023-02-21T09:10:11.461Z,52.72
2023-02-21T09:11:13.887Z,52.50
2023-02-21T09:12:18.942Z,157.43
2023-02-21T09:13:23.590Z,143.40
2023-02-21T09:14:28.311Z,183.68
2023-02-21T09:15:32.985Z,153.02
2023-02-21T09:16:37.648Z,120.53
2023-02-21T09:17:42.285Z,148.43
2023-02-21T09:18:46.915Z,111.05
2023-02-21T09:19:48.969Z,99.57
2023-02-21T09:20:55.509Z,97.53
2023-02-21T09:22:01.701Z,127.47
2023-02-21T09:23:06.432Z,80.13
2023-02-21T09:24:08.441Z,80.50
2023-02-21T09:25:13.311Z,60.88
2023-02-21T09:26:17.995Z,57.90
2023-02-21T09:27:36.336Z,92.43
2023-02-21T09:28:43.532Z,84.22
2023-02-21T09:29:48.197Z,107.93
2023-02-21T09:30:52.758Z,92.13
2023-02-21T09:31:55.165Z,75.95
2023-02-21T09:33:02.367Z,57.92
2023-02-21T09:34:07.034Z,93.20
2023-02-21T09:35:14.187Z,58.22
2023-02-21T09:36:24.087Z,44.22
2023-02-21T09:37:26.577Z,124.30
2023-02-21T09:38:31.127Z,113.65
2023-02-21T09:39:33.135Z,131.38
2023-02-21T09:40:42.940Z,138.50
2023-02-21T09:41:47.882Z,61.03
2023-02-21T09:42:51.368Z,71.93
2023-02-21T09:43:58.141Z,80.10
2023-02-21T09:45:04.713Z,81.00
2023-02-21T09:46:14.474Z,72.93
2023-02-21T09:47:25.808Z,67.07
2023-02-21T09:48:34.021Z,135.48
2023-02-21T09:49:39.476Z,109.53
2023-02-21T09:50:48.111Z,54.03
2023-02-21T09:51:51.596Z,133.85
2023-02-21T09:52:59.884Z,61.25
2023-02-21T09:54:03.744Z,60.83
2023-02-21T09:55:12.070Z,82.53
2023-02-21T09:58:14.897Z,63.58
2023-02-21T09:59:20.924Z,40.40
2023-02-21T10:00:29.863Z,229.45
2023-02-21T10:01:50.541Z,191.63
2023-02-21T10:03:06.909Z,113.68
2023-02-21T10:04:26.885Z,82.18
2023-02-21T10:05:43.248Z,115.00
2023-02-21T10:06:55.346Z,160.88
2023-02-21T10:08:03.102Z,95.97
2023-02-21T10:09:20.777Z,87.55
2023-02-21T10:10:33.817Z,109.88
2023-02-21T10:11:54.503Z,380.92
2023-02-21T10:13:09.003Z,721.03
2023-02-21T10:14:26.675Z,775.83
2023-02-21T10:15:45.232Z,446.55
2023-02-21T10:16:56.657Z,684.55
2023-02-21T10:18:10.947Z,844.10
2023-02-21T10:19:44.364Z,554.58
2023-02-21T10:20:59.774Z,445.60
2023-02-21T10:22:17.569Z,338.60
2023-02-21T10:23:33.501Z,462.35
2023-02-21T10:24:38.521Z,558.05
2023-02-21T10:25:47.131Z,588.78
2023-02-21T10:26:58.803Z,342.35
2023-02-21T10:30:19.259Z,373.25
2023-02-21T10:31:36.631Z,219.25
2023-02-21T10:32:43.368Z,146.88
2023-02-21T10:33:49.648Z,136.65
2023-02-21T10:34:58.846Z,130.43
2023-02-21T10:36:01.038Z,206.80
2023-02-21T10:37:16.197Z,272.60
2023-02-21T10:38:26.365Z,254.05
2023-02-21T10:39:36.427Z,341.45
2023-02-21T10:40:44.309Z,360.42
2023-02-21T10:42:00.082Z,279.75
2023-02-21T10:43:10.464Z,213.98
2023-02-21T10:44:22.442Z,288.00
2023-02-21T10:45:34.209Z,290.17
2023-02-21T10:46:49.057Z,305.38
2023-02-21T10:48:05.563Z,479.25
2023-02-21T10:49:32.826Z,1031.22
2023-02-21T10:50:52.784Z,1047.47
2023-02-21T10:52:23.371Z,1035.35
2023-02-21T10:53:37.280Z,1029.25
2023-02-21T10:54:42.888Z,1069.97
2023-02-21T10:55:45.045Z,1090.18
2023-02-21T10:56:51.497Z,1063.43
2023-02-21T10:57:56.309Z,1057.18
2023-02-21T10:59:05.746Z,1060.55
2023-02-21T11:00:10.813Z,1068.88
2023-02-21T11:01:18.603Z,1056.43
2023-02-21T11:02:35.034Z,1055.22
2023-02-21T11:03:37.369Z,980.08
2023-02-21T11:04:42.643Z,853.25
2023-02-21T11:05:52.748Z,725.60
2023-02-21T11:07:01.788Z,689.22
2023-02-21T11:08:09.574Z,599.70
2023-02-21T11:09:35.177Z,574.22
2023-02-21T11:10:42.456Z,711.53
2023-02-21T11:12:04.530Z,598.03
2023-02-21T11:14:30.733Z,551.03
2023-02-21T11:15:35.475Z,559.15
2023-02-21T11:16:37.484Z,508.17
2023-02-21T11:17:45.931Z,493.02
2023-02-21T11:19:07.552Z,435.40
2023-02-21T11:20:21.251Z,433.63
2023-02-21T11:21:25.974Z,477.98
2023-02-21T11:22:43.229Z,581.88
2023-02-21T11:23:52.374Z,508.10
2023-02-21T11:25:00.718Z,469.77
2023-02-21T11:26:12.555Z,441.45
2023-02-21T11:27:16.174Z,433.20
2023-02-21T11:28:23.605Z,420.20
2023-02-21T11:29:39.489Z,434.10
2023-02-21T11:30:54.382Z,608.35
2023-02-21T11:31:56.898Z,648.33
2023-02-21T11:33:04.914Z,580.08
2023-02-21T11:34:12.897Z,512.25
2023-02-21T11:35:24.517Z,483.27
2023-02-21T11:36:35.278Z,471.58
2023-02-21T11:37:49.523Z,428.73
2023-02-21T11:39:08.982Z,539.53
2023-02-21T11:40:23.735Z,553.22
2023-02-21T11:41:34.297Z,566.97
2023-02-21T11:42:36.293Z,646.10
2023-02-21T11:43:49.123Z,607.05
2023-02-21T11:45:07.083Z,586.50
2023-02-21T11:46:16.943Z,603.45
2023-02-21T11:47:26.421Z,585.10
2023-02-21T11:48:33.029Z,580.35
2023-02-21T11:49:48.844Z,557.15
2023-02-21T11:50:55.289Z,533.33
2023-02-21T11:52:06.117Z,505.45
2023-02-21T11:53:19.116Z,610.42
2023-02-21T11:54:30.135Z,572.33
2023-02-21T11:55:32.280Z,405.25
2023-02-21T11:56:52.083Z,459.00
2023-02-21T11:58:06.563Z,366.08
2023-02-21T11:59:20.396Z,340.48
2023-02-21T12:00:31.186Z,293.88
2023-02-21T12:01:55.033Z,400.50
2023-02-21T12:03:31.409Z,193.65
2023-02-21T12:05:05.324Z,274.00
2023-02-21T12:06:21.280Z,216.18
2023-02-21T12:07:42.799Z,200.60
2023-02-21T12:08:55.849Z,189.85
2023-02-21T12:10:09.847Z,251.82
2023-02-21T12:11:28.967Z,211.40
2023-02-21T12:12:44.845Z,242.23
2023-02-21T12:13:57.491Z,181.65
2023-02-21T12:15:14.001Z,190.90
2023-02-21T12:16:27.550Z,335.90
2023-02-21T12:17:52.302Z,171.63
2023-02-21T12:19:12.950Z,77.57
2023-02-21T12:20:47.186Z,56.78
2023-02-21T12:22:04.196Z,136.75
2023-02-21T12:23:17.260Z,98.25
2023-02-21T12:24:46.296Z,193.75
2023-02-21T12:26:07.248Z,286.33
2023-02-21T12:27:19.447Z,173.02
2023-02-21T12:28:48.062Z,304.98
2023-02-21T12:30:05.275Z,761.65
2023-02-21T12:31:26.931Z,726.38
2023-02-21T12:32:48.670Z,1012.30
2023-02-21T12:34:01.639Z,1032.05
2023-02-21T12:35:49.249Z,1072.47
2023-02-21T12:37:04.178Z,1078.80
2023-02-21T12:38:14.929Z,1092.85
2023-02-21T12:39:33.419Z,1084.63
2023-02-21T12:40:45.780Z,1078.53
2023-02-21T12:42:12.727Z,992.28
2023-02-21T12:43:36.711Z,1110.65
2023-02-21T12:44:47.697Z,295.30
2023-02-21T12:46:03.740Z,96.10
2023-02-21T12:47:12.071Z,68.07
2023-02-21T12:48:22.293Z,50.88
2023-02-21T12:49:31.136Z,33.63
2023-02-21T12:50:36.800Z,147.70
2023-02-21T12:51:45.302Z,162.25
2023-02-21T12:53:02.844Z,97.60
2023-02-21T12:54:15.364Z,80.00
2023-02-21T12:55:24.926Z,148.27
2023-02-21T12:56:33.356Z,101.15
2023-02-21T12:57:46.596Z,136.38
2023-02-21T12:58:55.526Z,59.22
2023-02-21T13:00:12.808Z,50.95
2023-02-21T13:01:22.528Z,54.63
2023-02-21T13:02:35.130Z,80.95
2023-02-21T13:03:50.043Z,154.43
2023-02-21T13:04:59.987Z,97.78
2023-02-21T13:06:07.372Z,55.17
2023-02-21T13:07:19.361Z,74.47
2023-02-21T13:08:25.285Z,24.63
2023-02-21T13:09:37.698Z,33.83
2023-02-21T13:10:51.737Z,114.45
2023-02-21T13:12:03.563Z,133.88
2023-02-21T13:13:14.993Z,90.72
2023-02-21T13:14:20.379Z,70.65
2023-02-21T13:15:26.995Z,67.35
2023-02-21T13:16:29.459Z,75.60
2023-02-21T13:17:34.240Z,64.72
2023-02-21T13:18:43.188Z,104.22
2023-02-21T13:19:56.568Z,152.95
2023-02-21T13:21:09.197Z,57.72
2023-02-21T13:22:46.032Z,92.10
2023-02-21T13:24:06.724Z,128.20
2023-02-21T13:25:23.147Z,53.67
2023-02-21T13:26:50.534Z,79.25
2023-02-21T13:28:00.339Z,90.95
2023-02-21T13:29:02.583Z,113.65
2023-02-21T13:30:15.180Z,64.28
2023-02-21T13:31:23.738Z,53.53
2023-02-21T13:32:25.872Z,102.68
2023-02-21T13:33:33.358Z,55.00
2023-02-21T13:34:40.348Z,96.57
2023-02-21T13:35:47.315Z,123.15
2023-02-21T13:36:52.372Z,135.88
2023-02-21T13:38:00.357Z,132.88
2023-02-21T13:39:13.036Z,91.07
2023-02-21T13:40:24.699Z,54.05
2023-02-21T13:42:35.109Z,134.93
2023-02-21T13:43:48.188Z,192.68
2023-02-21T13:44:54.547Z,760.33
2023-02-21T13:46:49.625Z,1095.65
2023-02-21T13:48:24.287Z,275.30
2023-02-21T13:49:51.519Z,84.05
2023-02-21T13:50:59.648Z,159.48
2023-02-21T13:52:16.780Z,774.75
2023-02-21T13:53:24.071Z,1035.80
2023-02-21T13:54:26.280Z,1200.15
2023-02-21T13:55:36.223Z,211.50
2023-02-21T13:56:46.635Z,104.97
2023-02-21T13:57:50.206Z,106.78
2023-02-21T13:58:54.972Z,35.85
2023-02-21T13:59:57.055Z,55.97
2023-02-21T14:01:44.705Z,41.05
2023-02-21T14:02:55.835Z,82.18
2023-02-21T14:04:00.873Z,73.25
2023-02-21T14:05:11.539Z,59.30
2023-02-21T14:06:30.529Z,38.45
2023-02-21T14:07:53.532Z,65.22
2023-02-21T14:09:03.536Z,84.20
2023-02-21T14:10:05.963Z,54.58
2023-02-21T14:11:18.444Z,129.73
2023-02-21T14:12:26.291Z,105.90
2023-02-21T14:13:36.657Z,26.20
2023-02-21T14:14:44.442Z,104.80
2023-02-21T14:15:52.004Z,106.03
2023-02-21T14:17:03.061Z,115.95
2023-02-21T14:18:05.384Z,32.38
2023-02-21T14:19:12.214Z,36.63
2023-02-21T14:20:16.129Z,71.03
2023-02-21T14:21:28.777Z,43.28
2023-02-21T14:22:38.844Z,76.63
2023-02-21T14:24:04.910Z,106.85
2023-02-21T14:25:19.098Z,74.10
2023-02-21T14:26:43.787Z,63.67
2023-02-21T14:27:48.671Z,125.72
2023-02-21T14:29:19.185Z,133.27
2023-02-21T14:30:29.521Z,50.15
2023-02-21T14:31:51.746Z,56.43
2023-02-21T14:33:18.015Z,58.00
2023-02-21T14:34:40.228Z,49.40
2023-02-21T14:35:50.879Z,121.55
2023-02-21T14:37:00.342Z,40.77
2023-02-21T14:38:08.804Z,63.97
2023-02-21T14:39:48.231Z,103.47
2023-02-21T14:41:05.522Z,82.60
2023-02-21T14:43:03.239Z,39.25
2023-02-21T14:44:26.105Z,51.15
2023-02-21T14:45:44.241Z,57.30
2023-02-21T14:47:25.714Z,78.20
2023-02-21T14:48:57.406Z,38.95
2023-02-21T14:50:21.662Z,43.75
2023-02-21T14:51:57.693Z,50.53
2023-02-21T14:53:26.276Z,58.60
2023-02-21T14:55:05.668Z,57.45
2023-02-21T14:56:37.646Z,140.52
2023-02-21T14:59:13.832Z,100.63
2023-02-21T15:01:43.872Z,75.18
2023-02-21T15:02:56.085Z,102.32
2023-02-21T15:04:20.611Z,53.05
2023-02-21T15:05:30.546Z,82.75
2023-02-21T15:06:34.160Z,114.82
2023-02-21T15:07:49.142Z,79.13
2023-02-21T15:08:52.365Z,119.13
2023-02-21T15:10:15.139Z,131.73
2023-02-21T15:11:27.137Z,83.63
2023-02-21T15:12:29.368Z,58.35
2023-02-21T15:13:36.034Z,48.65
2023-02-21T15:14:47.119Z,63.40
2023-02-21T15:16:03.445Z,131.80
2023-02-21T15:17:15.313Z,82.63
2023-02-21T15:18:28.286Z,57.58
2023-02-21T15:19:35.196Z,40.30
2023-02-21T15:20:42.468Z,58.22
2023-02-21T15:21:44.521Z,80.60
2023-02-21T15:22:50.058Z,105.20
2023-02-21T15:24:02.187Z,97.50
2023-02-21T15:25:21.101Z,70.35
2023-02-21T15:26:27.844Z,50.20
2023-02-21T15:27:29.969Z,80.38
2023-02-21T15:28:36.376Z,58.97
2023-02-21T15:29:39.039Z,73.65
2023-02-21T15:30:45.041Z,93.75
2023-02-21T15:31:53.537Z,111.63
2023-02-21T15:33:02.627Z,108.28
2023-02-21T15:34:07.466Z,90.88
2023-02-21T15:35:24.406Z,109.28
2023-02-21T15:36:37.203Z,66.43